createdAt,value
2022-12-18T00:00:48.039Z,64.67
2022-12-18T00:03:12.610Z,67.37
2022-12-18T00:05:38.653Z,61.90
2022-12-18T00:08:02.359Z,64.83
2022-12-18T00:10:26.179Z,64.53
2022-12-18T00:12:49.776Z,61.40
2022-12-18T00:15:13.436Z,65.77
2022-12-18T00:17:37.084Z,70.43
2022-12-18T00:20:00.783Z,64.67
2022-12-18T00:22:25.776Z,63.23
2022-12-18T00:24:49.511Z,78.07
2022-12-18T00:27:13.191Z,71.40
2022-12-18T00:29:36.932Z,74.57
2022-12-18T00:32:00.648Z,70.97
2022-12-18T00:34:24.422Z,75.17
2022-12-18T00:36:50.950Z,70.67
2022-12-18T00:39:16.185Z,77.57
2022-12-18T00:41:59.524Z,64.13
2022-12-18T00:44:23.302Z,66.57
2022-12-18T00:46:49.475Z,71.50
2022-12-18T00:49:13.255Z,58.43
2022-12-18T00:51:37.161Z,62.50
2022-12-18T00:54:00.980Z,56.13
2022-12-18T00:56:26.906Z,59.00
2022-12-18T00:58:51.554Z,67.93
2022-12-18T01:01:15.643Z,62.13
2022-12-18T01:03:39.647Z,74.33
2022-12-18T01:06:09.465Z,59.20
2022-12-18T01:08:33.212Z,57.87
2022-12-18T01:10:56.808Z,62.30
2022-12-18T01:13:21.972Z,61.00
2022-12-18T01:15:51.686Z,61.93
2022-12-18T01:18:15.370Z,65.10
2022-12-18T01:20:40.835Z,61.67
2022-12-18T01:23:04.571Z,68.40
2022-12-18T01:25:28.179Z,65.70
2022-12-18T01:27:51.975Z,64.07
2022-12-18T01:30:17.146Z,38.13
2022-12-18T01:32:41.044Z,57.20
2022-12-18T01:35:05.440Z,62.00
2022-12-18T01:37:29.194Z,55.97
2022-12-18T01:39:54.446Z,59.77
2022-12-18T01:42:18.677Z,58.87
2022-12-18T01:45:10.966Z,46.37
2022-12-18T01:47:48.766Z,57.50
2022-12-18T01:50:18.070Z,60.20
2022-12-18T01:52:45.881Z,67.77
2022-12-18T01:55:10.841Z,63.50
2022-12-18T01:57:34.854Z,69.27
2022-12-18T02:00:05.547Z,69.07
2022-12-18T02:02:36.605Z,66.77
2022-12-18T02:05:01.841Z,53.73
2022-12-18T02:07:37.530Z,60.33
2022-12-18T02:10:09.581Z,48.23
2022-12-18T02:12:45.193Z,58.77
2022-12-18T02:15:18.350Z,57.57
2022-12-18T02:17:49.078Z,69.80
2022-12-18T02:20:21.444Z,59.20
2022-12-18T02:23:01.653Z,64.67
2022-12-18T02:25:43.178Z,68.20
2022-12-18T02:28:13.010Z,59.63
2022-12-18T02:30:40.157Z,65.47
2022-12-18T02:33:09.529Z,49.03
2022-12-18T02:35:34.559Z,63.13
2022-12-18T02:38:00.392Z,60.97
2022-12-18T02:40:29.917Z,54.67
2022-12-18T02:42:55.498Z,65.93
2022-12-18T02:45:22.068Z,65.77
2022-12-18T02:47:50.817Z,69.83
2022-12-18T02:50:25.172Z,81.30
2022-12-18T02:53:07.155Z,68.70
2022-12-18T02:55:44.383Z,72.10
2022-12-18T02:58:18.128Z,64.80
2022-12-18T03:00:53.951Z,72.93
2022-12-18T03:03:26.981Z,66.07
2022-12-18T03:05:56.135Z,74.07
2022-12-18T03:08:24.532Z,71.33
2022-12-18T03:10:55.855Z,70.27
2022-12-18T03:13:34.002Z,72.43
2022-12-18T03:16:01.683Z,66.17
2022-12-18T03:20:56.040Z,70.80
2022-12-18T03:23:27.632Z,61.70
2022-12-18T03:25:54.104Z,68.63
2022-12-18T03:28:23.571Z,65.83
2022-12-18T03:31:01.274Z,58.93
2022-12-18T03:33:30.595Z,70.83
2022-12-18T03:35:55.286Z,77.03
2022-12-18T03:38:20.053Z,73.33
2022-12-18T03:40:56.673Z,70.17
2022-12-18T03:43:33.371Z,68.17
2022-12-18T03:46:06.403Z,56.73
2022-12-18T03:48:36.501Z,69.10
2022-12-18T03:51:11.422Z,71.50
2022-12-18T03:53:44.476Z,77.40
2022-12-18T03:56:11.273Z,77.33
2022-12-18T03:58:39.995Z,74.20
2022-12-18T04:01:23.326Z,80.77
2022-12-18T04:03:51.400Z,79.57
2022-12-18T04:06:17.972Z,77.77
2022-12-18T04:08:42.846Z,67.40
2022-12-18T04:11:09.755Z,67.30
2022-12-18T04:13:39.334Z,69.30
2022-12-18T04:16:10.536Z,68.90
2022-12-18T04:18:39.334Z,69.40
2022-12-18T04:21:03.338Z,70.83
2022-12-18T04:23:27.086Z,64.67
2022-12-18T04:25:53.968Z,72.23
2022-12-18T04:28:30.997Z,78.47
2022-12-18T04:30:55.134Z,83.37
2022-12-18T04:33:19.483Z,91.10
2022-12-18T04:35:45.149Z,89.50
2022-12-18T04:38:10.402Z,78.77
2022-12-18T04:40:37.665Z,77.50
2022-12-18T04:43:07.149Z,82.20
2022-12-18T04:45:30.902Z,76.47
2022-12-18T04:47:54.528Z,36.67
2022-12-18T04:50:18.353Z,76.47
2022-12-18T04:52:44.126Z,97.70
2022-12-18T04:55:08.680Z,92.93
2022-12-18T04:57:32.403Z,90.87
2022-12-18T04:59:56.045Z,91.83
2022-12-18T05:02:19.762Z,96.60
2022-12-18T05:04:43.615Z,68.13
2022-12-18T05:07:07.246Z,93.13
2022-12-18T05:09:32.370Z,97.57
2022-12-18T05:11:56.011Z,89.87
2022-12-18T05:14:19.841Z,80.30
2022-12-18T05:16:43.602Z,91.07
2022-12-18T05:19:07.756Z,94.40
2022-12-18T05:21:31.370Z,90.00
2022-12-18T05:23:54.981Z,108.27
2022-12-18T05:26:21.251Z,94.27
2022-12-18T05:28:45.409Z,103.60
2022-12-18T05:31:09.030Z,105.10
2022-12-18T05:33:35.198Z,103.13
2022-12-18T05:36:04.040Z,95.60
2022-12-18T05:38:30.052Z,100.73
2022-12-18T05:40:54.973Z,102.40
2022-12-18T05:43:22.650Z,113.57
2022-12-18T05:45:46.512Z,100.73
2022-12-18T05:48:13.530Z,123.43
2022-12-18T05:50:37.811Z,104.37
2022-12-18T05:53:01.964Z,98.90
2022-12-18T05:55:25.570Z,99.80
2022-12-18T05:57:49.223Z,105.70
2022-12-18T06:00:16.910Z,100.10
2022-12-18T06:02:40.970Z,100.07
2022-12-18T06:05:04.844Z,111.50
2022-12-18T06:07:28.490Z,102.23
2022-12-18T06:09:52.159Z,89.63
2022-12-18T06:12:15.827Z,93.40
2022-12-18T06:14:39.942Z,107.77
2022-12-18T06:17:05.138Z,94.17
2022-12-18T06:19:28.721Z,74.87
2022-12-18T06:21:52.425Z,87.33
2022-12-18T06:24:16.063Z,84.90
2022-12-18T06:26:40.820Z,96.33
2022-12-18T06:29:04.474Z,93.43
2022-12-18T06:31:28.724Z,101.40
2022-12-18T06:33:54.350Z,88.83
2022-12-18T06:36:18.364Z,92.57
2022-12-18T06:38:44.374Z,65.17
2022-12-18T06:41:10.118Z,103.77
2022-12-18T06:43:33.952Z,81.60
2022-12-18T06:46:01.904Z,88.10
2022-12-18T06:48:25.586Z,107.10
2022-12-18T06:50:50.698Z,99.17
2022-12-18T06:53:14.546Z,95.30
2022-12-18T06:55:38.199Z,105.30
2022-12-18T06:58:02.161Z,93.33
2022-12-18T07:00:25.988Z,96.70
2022-12-18T07:02:49.719Z,66.27
2022-12-18T07:05:13.456Z,93.83
2022-12-18T07:07:38.579Z,78.87
2022-12-18T07:10:02.295Z,99.77
2022-12-18T07:12:25.917Z,80.73
2022-12-18T07:14:49.621Z,99.50
2022-12-18T07:17:13.370Z,92.90
2022-12-18T07:19:37.265Z,92.63
2022-12-18T07:22:00.942Z,92.33
2022-12-18T07:24:26.008Z,87.37
2022-12-18T07:26:49.835Z,70.17
2022-12-18T07:29:13.521Z,99.53
2022-12-18T07:31:37.168Z,69.17
2022-12-18T07:34:00.871Z,89.67
2022-12-18T07:36:25.872Z,57.70
2022-12-18T07:38:50.340Z,70.57
2022-12-18T07:41:16.419Z,76.53
2022-12-18T07:43:41.918Z,62.57
2022-12-18T07:46:06.707Z,85.07
2022-12-18T07:48:30.756Z,87.47
2022-12-18T07:50:54.702Z,68.63
2022-12-18T07:53:18.305Z,69.23
2022-12-18T07:56:05.454Z,58.43
2022-12-18T07:58:27.616Z,71.13
2022-12-18T08:00:51.212Z,73.50
2022-12-18T08:03:18.219Z,70.80
2022-12-18T08:05:41.898Z,71.93
2022-12-18T08:08:05.582Z,74.23
2022-12-18T08:10:29.192Z,75.47
2022-12-18T08:12:53.715Z,96.37
2022-12-18T08:15:19.127Z,69.93
2022-12-18T08:17:42.775Z,78.73
2022-12-18T08:20:07.199Z,72.13
2022-12-18T08:22:30.829Z,63.57
2022-12-18T08:24:54.372Z,93.07
2022-12-18T08:27:29.288Z,140.93
2022-12-18T08:29:53.472Z,79.83
2022-12-18T08:32:18.582Z,115.50
2022-12-18T08:34:42.291Z,88.00
2022-12-18T08:37:05.874Z,58.63
2022-12-18T08:39:29.589Z,87.80
2022-12-18T08:42:10.248Z,80.87
2022-12-18T08:44:40.328Z,88.20
2022-12-18T08:47:03.969Z,90.77
2022-12-18T08:49:28.969Z,57.30
2022-12-18T08:51:58.132Z,83.30
2022-12-18T08:54:21.798Z,90.77
2022-12-18T08:56:45.431Z,78.77
2022-12-18T08:59:10.467Z,72.30
2022-12-18T09:01:36.910Z,81.97
2022-12-18T09:04:00.642Z,31.50
2022-12-18T09:06:27.632Z,75.97
2022-12-18T09:08:51.531Z,76.83
2022-12-18T09:11:17.795Z,66.73
2022-12-18T09:13:41.836Z,61.27
2022-12-18T09:16:06.545Z,85.70
2022-12-18T09:18:30.184Z,69.43
2022-12-18T09:20:54.192Z,75.43
2022-12-18T09:23:19.320Z,76.27
2022-12-18T09:25:43.138Z,77.33
2022-12-18T09:28:11.554Z,72.33
2022-12-18T09:30:35.609Z,40.37
2022-12-18T09:32:59.899Z,72.27
2022-12-18T09:35:23.980Z,65.40
2022-12-18T09:37:47.972Z,62.07
2022-12-18T09:40:16.992Z,75.00
2022-12-18T09:42:40.730Z,71.90
2022-12-18T09:45:06.437Z,71.67
2022-12-18T09:47:35.453Z,49.50
2022-12-18T09:50:02.056Z,64.10
2022-12-18T09:52:32.393Z,62.33
2022-12-18T09:55:02.586Z,52.30
2022-12-18T09:57:28.012Z,70.37
2022-12-18T09:59:58.666Z,71.63
2022-12-18T10:02:26.021Z,62.83
2022-12-18T10:05:05.210Z,71.07
2022-12-18T10:07:41.101Z,60.87
2022-12-18T10:10:14.672Z,62.07
2022-12-18T10:12:49.724Z,65.57
2022-12-18T10:15:22.965Z,65.63
2022-12-18T10:17:54.021Z,52.67
2022-12-18T10:20:25.179Z,62.10
2022-12-18T10:23:01.985Z,60.87
2022-12-18T10:25:30.619Z,65.43
2022-12-18T10:28:00.403Z,48.50
2022-12-18T10:30:26.562Z,63.33
2022-12-18T10:32:50.281Z,61.00
2022-12-18T10:35:21.558Z,65.50
2022-12-18T10:38:06.165Z,68.87
2022-12-18T10:40:30.329Z,58.67
2022-12-18T10:43:07.522Z,68.10
2022-12-18T10:45:31.747Z,62.30
2022-12-18T10:47:55.470Z,70.27
2022-12-18T10:50:46.874Z,69.23
2022-12-18T10:53:24.130Z,73.03
2022-12-18T10:55:49.352Z,70.20
2022-12-18T10:58:26.827Z,69.00
2022-12-18T11:01:10.538Z,64.93
2022-12-18T11:03:37.788Z,76.00
2022-12-18T11:06:07.659Z,74.37
2022-12-18T11:08:31.311Z,68.83
2022-12-18T11:10:54.962Z,71.67
2022-12-18T11:13:23.709Z,60.37
2022-12-18T11:15:48.063Z,68.60
2022-12-18T11:18:22.541Z,61.67
2022-12-18T11:20:58.284Z,70.43
2022-12-18T11:23:24.525Z,76.47
2022-12-18T11:25:56.030Z,66.03
2022-12-18T11:28:42.032Z,68.87
2022-12-18T11:31:24.456Z,61.13
2022-12-18T11:34:28.231Z,67.83
2022-12-18T11:36:50.407Z,70.27
2022-12-18T11:39:22.239Z,64.47
2022-12-18T11:42:12.899Z,72.10
2022-12-18T11:44:47.349Z,76.90
2022-12-18T11:47:24.267Z,66.93
2022-12-18T11:49:51.825Z,71.87
2022-12-18T11:52:23.430Z,71.63
2022-12-18T11:54:50.222Z,64.67
2022-12-18T11:57:28.483Z,77.27
2022-12-18T12:00:02.121Z,73.50
2022-12-18T12:03:14.435Z,77.67
2022-12-18T12:05:53.784Z,66.30
2022-12-18T12:08:28.531Z,75.27
2022-12-18T12:11:05.478Z,52.47
2022-12-18T12:13:46.350Z,63.70
2022-12-18T12:16:20.562Z,74.77
2022-12-18T12:19:00.395Z,56.83
2022-12-18T12:21:31.447Z,66.73
2022-12-18T12:24:03.933Z,66.10
2022-12-18T12:26:37.374Z,59.90
2022-12-18T12:29:17.952Z,70.37
2022-12-18T12:32:09.988Z,61.27
2022-12-18T12:34:46.509Z,67.97
2022-12-18T12:40:26.889Z,60.67
2022-12-18T12:43:15.732Z,57.47
2022-12-18T12:45:45.547Z,56.83
2022-12-18T12:48:22.175Z,48.73
2022-12-18T12:50:46.579Z,55.57
2022-12-18T12:53:19.863Z,49.43
2022-12-18T12:55:45.211Z,60.27
2022-12-18T12:58:19.475Z,50.13
2022-12-18T13:00:55.734Z,47.33
2022-12-18T13:03:35.217Z,56.17
2022-12-18T13:06:03.221Z,55.13
2022-12-18T13:11:59.701Z,57.00
2022-12-18T13:13:43.874Z,58.83
2022-12-18T13:14:28.494Z,56.13
2022-12-18T13:16:52.878Z,65.20
2022-12-18T13:19:26.534Z,60.20
2022-12-18T13:21:56.969Z,64.70
2022-12-18T13:24:28.983Z,36.63
2022-12-18T13:26:53.094Z,55.97
2022-12-18T13:29:45.918Z,55.53
2022-12-18T13:32:23.047Z,52.47
2022-12-18T13:34:48.491Z,52.50
2022-12-18T13:37:45.838Z,57.87
2022-12-18T13:41:00.412Z,60.53
2022-12-18T13:43:32.627Z,65.13
2022-12-18T13:46:21.443Z,60.67
2022-12-18T13:48:54.797Z,49.87
2022-12-18T13:51:20.395Z,61.57
2022-12-18T13:53:50.553Z,41.10
2022-12-18T13:56:24.218Z,69.30
2022-12-18T13:58:48.397Z,58.33
2022-12-18T14:01:25.373Z,58.83
2022-12-18T14:03:49.488Z,51.93
2022-12-18T14:06:15.436Z,48.37
2022-12-18T14:08:43.802Z,64.07
2022-12-18T14:11:09.702Z,54.27
2022-12-18T14:13:40.052Z,57.93
2022-12-18T14:16:06.952Z,59.80
2022-12-18T14:18:41.525Z,63.70
2022-12-18T14:21:06.755Z,63.77
2022-12-18T14:23:34.900Z,70.33
2022-12-18T14:26:03.764Z,66.00
2022-12-18T14:28:29.408Z,57.67
2022-12-18T14:30:53.333Z,53.50
2022-12-18T14:33:20.969Z,41.10
2022-12-18T14:35:57.354Z,52.73
2022-12-18T14:38:28.081Z,52.63
2022-12-18T14:41:08.714Z,63.47
2022-12-18T14:43:36.538Z,50.20
2022-12-18T14:46:01.193Z,52.97
2022-12-18T14:48:36.965Z,57.93
2022-12-18T14:51:05.152Z,40.27
2022-12-18T14:53:38.031Z,54.43
2022-12-18T14:56:02.562Z,61.20
2022-12-18T14:58:26.545Z,58.73
2022-12-18T15:00:52.040Z,64.87
2022-12-18T15:03:21.333Z,67.90
2022-12-18T15:05:45.764Z,62.50
2022-12-18T15:08:38.190Z,62.00
2022-12-18T15:11:01.958Z,65.10
2022-12-18T15:13:27.833Z,63.40
2022-12-18T15:15:51.938Z,60.83
2022-12-18T15:18:19.033Z,52.57
2022-12-18T15:20:46.188Z,58.10
2022-12-18T15:23:17.760Z,60.10
2022-12-18T15:25:43.019Z,51.13
2022-12-18T15:28:20.420Z,54.67
2022-12-18T15:31:06.048Z,48.13
2022-12-18T15:33:33.917Z,65.13
2022-12-18T15:36:02.120Z,39.10
2022-12-18T15:38:25.857Z,51.13
2022-12-18T15:40:51.073Z,57.63
2022-12-18T15:43:34.090Z,57.50
2022-12-18T15:45:57.884Z,53.23
2022-12-18T15:48:24.752Z,58.87
2022-12-18T15:50:48.635Z,67.03
2022-12-18T15:53:12.405Z,62.13
2022-12-18T15:55:57.826Z,53.90
2022-12-18T15:58:26.304Z,49.20
2022-12-18T16:00:49.939Z,51.53
2022-12-18T16:03:13.820Z,49.00
2022-12-18T16:05:37.891Z,57.93
2022-12-18T16:08:01.671Z,43.60
2022-12-18T16:10:26.600Z,43.53
2022-12-18T16:12:50.621Z,45.70
2022-12-18T16:15:22.431Z,44.13
2022-12-18T16:17:49.425Z,49.63
2022-12-18T16:20:17.141Z,48.73
2022-12-18T16:22:40.930Z,47.97
2022-12-18T16:25:06.243Z,55.90
2022-12-18T16:27:30.012Z,55.03
2022-12-18T16:29:53.945Z,54.27
2022-12-18T16:32:21.708Z,56.97
2022-12-18T16:34:46.324Z,49.20
2022-12-18T16:37:12.154Z,54.23
2022-12-18T16:39:37.288Z,39.80
2022-12-18T16:42:01.936Z,44.57
2022-12-18T16:44:29.449Z,51.57
2022-12-18T16:46:53.226Z,47.80
2022-12-18T16:49:20.556Z,52.00
2022-12-18T16:51:45.127Z,51.00
2022-12-18T16:54:11.677Z,53.80
2022-12-18T16:56:38.886Z,55.33
2022-12-18T16:59:05.252Z,51.50
2022-12-18T17:01:31.395Z,55.80
2022-12-18T17:03:56.471Z,54.67
2022-12-18T17:06:21.970Z,52.73
2022-12-18T17:08:45.737Z,51.60
2022-12-18T17:11:10.425Z,53.33
2022-12-18T17:13:34.268Z,57.63
2022-12-18T17:16:03.841Z,29.13
2022-12-18T17:18:28.303Z,46.30
2022-12-18T17:20:51.959Z,55.67
2022-12-18T17:23:17.065Z,50.43
2022-12-18T17:25:41.697Z,38.67
2022-12-18T17:28:05.665Z,57.17
2022-12-18T17:30:31.814Z,49.87
2022-12-18T17:32:55.464Z,53.73
2022-12-18T17:35:19.194Z,55.30
2022-12-18T17:37:42.866Z,53.60
2022-12-18T17:40:10.210Z,53.23
2022-12-18T17:42:33.808Z,60.47
2022-12-18T17:44:57.468Z,47.20
2022-12-18T17:47:21.200Z,60.50
2022-12-18T17:49:44.938Z,54.87
2022-12-18T17:52:08.609Z,45.37
2022-12-18T17:54:33.182Z,53.97
2022-12-18T17:56:58.240Z,60.37
2022-12-18T17:59:22.691Z,59.00
2022-12-18T18:01:46.568Z,58.50
2022-12-18T18:04:10.559Z,60.87
2022-12-18T18:06:34.875Z,53.53
2022-12-18T18:09:02.922Z,57.73
2022-12-18T18:11:44.198Z,58.60
2022-12-18T18:14:20.994Z,42.07
2022-12-18T18:16:47.329Z,63.27
2022-12-18T18:19:15.717Z,57.73
2022-12-18T18:21:41.291Z,62.73
2022-12-18T18:24:06.514Z,57.93
2022-12-18T18:26:31.843Z,61.77
2022-12-18T18:28:56.162Z,64.23
2022-12-18T18:31:21.616Z,67.10
2022-12-18T18:33:45.342Z,65.60
2022-12-18T18:36:13.050Z,70.77
2022-12-18T18:38:42.124Z,64.60
2022-12-18T18:41:09.425Z,65.33
2022-12-18T18:43:33.892Z,58.80
2022-12-18T18:45:58.215Z,65.93
2022-12-18T18:48:23.334Z,63.40
2022-12-18T18:50:58.204Z,70.93
2022-12-18T18:53:21.928Z,71.60
2022-12-18T18:55:51.686Z,59.33
2022-12-18T18:58:22.966Z,71.33
2022-12-18T19:00:56.203Z,68.50
2022-12-18T19:03:21.051Z,72.17
2022-12-18T19:05:54.606Z,64.70
2022-12-18T19:08:18.338Z,53.80
2022-12-18T19:10:42.335Z,66.40
2022-12-18T19:13:24.663Z,71.17
2022-12-18T19:15:48.509Z,78.83
2022-12-18T19:18:12.140Z,59.73
2022-12-18T19:20:36.135Z,57.10
2022-12-18T19:23:01.216Z,73.97
2022-12-18T19:25:38.561Z,75.27
2022-12-18T19:28:04.897Z,72.60
2022-12-18T19:30:30.633Z,64.20
2022-12-18T19:32:54.345Z,78.80
2022-12-18T19:35:18.147Z,71.97
2022-12-18T19:37:41.889Z,65.80
2022-12-18T19:40:12.268Z,67.53
2022-12-18T19:42:36.368Z,67.97
2022-12-18T19:45:00.024Z,77.23
2022-12-18T19:47:23.660Z,70.83
2022-12-18T19:49:47.358Z,78.33
2022-12-18T19:52:11.054Z,82.33
2022-12-18T19:54:34.716Z,76.70
2022-12-18T19:56:59.819Z,71.97
2022-12-18T19:59:23.659Z,76.03
2022-12-18T20:01:47.614Z,78.10
2022-12-18T20:04:11.509Z,82.97
2022-12-18T20:06:37.124Z,67.57
2022-12-18T20:09:04.420Z,73.63
2022-12-18T20:11:28.274Z,74.00
2022-12-18T20:13:53.476Z,68.70
2022-12-18T20:16:17.321Z,82.13
2022-12-18T20:18:41.473Z,80.70
2022-12-18T20:21:10.781Z,70.93
2022-12-18T20:23:37.527Z,77.67
2022-12-18T20:26:01.301Z,75.70
2022-12-18T20:28:26.065Z,76.07
2022-12-18T20:30:51.274Z,71.37
2022-12-18T20:33:15.446Z,76.30
2022-12-18T20:35:39.248Z,43.27
2022-12-18T20:38:03.183Z,70.13
2022-12-18T20:40:28.169Z,64.67
2022-12-18T20:42:52.229Z,60.57
2022-12-18T20:45:16.805Z,60.33
2022-12-18T20:47:41.883Z,57.07
2022-12-18T20:50:06.423Z,74.93
2022-12-18T20:52:30.082Z,60.73
2022-12-18T20:54:53.708Z,78.67
2022-12-18T20:57:17.441Z,73.33
2022-12-18T20:59:46.321Z,62.60
2022-12-18T21:02:16.145Z,77.27
2022-12-18T21:04:42.996Z,66.07
2022-12-18T21:07:07.131Z,67.53
2022-12-18T21:09:38.152Z,60.87
2022-12-18T21:12:19.453Z,64.37
2022-12-18T21:14:43.570Z,66.77
2022-12-18T21:17:07.316Z,60.40
2022-12-18T21:19:31.605Z,47.63
2022-12-18T21:21:58.099Z,57.80
2022-12-18T21:24:22.536Z,64.57
2022-12-18T21:26:48.188Z,71.90
2022-12-18T21:29:15.176Z,69.60
2022-12-18T21:31:40.348Z,69.83
2022-12-18T21:34:05.715Z,68.17
2022-12-18T21:36:29.805Z,63.17
2022-12-18T21:38:56.448Z,50.93
2022-12-18T21:41:38.790Z,59.47
2022-12-18T21:44:09.168Z,71.07
2022-12-18T21:46:35.645Z,62.50
2022-12-18T21:48:59.482Z,68.17
2022-12-18T21:51:23.096Z,58.70
2022-12-18T21:53:46.780Z,65.63
2022-12-18T21:56:14.161Z,61.30
2022-12-18T21:58:37.890Z,64.03
2022-12-18T22:01:01.604Z,33.47
2022-12-18T22:03:25.493Z,65.40
2022-12-18T22:05:56.211Z,65.00
2022-12-18T22:08:33.141Z,52.43
2022-12-18T22:10:56.991Z,56.30
2022-12-18T22:13:22.497Z,63.97
2022-12-18T22:15:46.222Z,64.43
2022-12-18T22:18:14.114Z,64.87
2022-12-18T22:20:37.783Z,64.57
2022-12-18T22:23:05.638Z,59.47
2022-12-18T22:25:29.900Z,61.40
2022-12-18T22:28:07.360Z,55.07
2022-12-18T22:30:32.502Z,49.53
2022-12-18T22:32:56.766Z,69.40
2022-12-18T22:35:20.542Z,61.70
2022-12-18T22:37:44.171Z,52.43
2022-12-18T22:40:11.061Z,48.33
2022-12-18T22:42:36.674Z,47.20
2022-12-18T22:45:00.804Z,56.50
2022-12-18T22:47:29.742Z,61.03
2022-12-18T22:49:54.289Z,63.60
2022-12-18T22:52:17.900Z,56.70
2022-12-18T22:54:43.361Z,59.37
2022-12-18T22:57:07.036Z,61.60
2022-12-18T22:59:31.104Z,53.47
2022-12-18T23:01:58.909Z,63.40
2022-12-18T23:04:29.007Z,53.50
2022-12-18T23:07:00.087Z,54.13
2022-12-18T23:09:24.210Z,50.63
2022-12-18T23:11:49.100Z,60.13
2022-12-18T23:14:12.919Z,52.10
2022-12-18T23:16:36.765Z,54.23
2022-12-18T23:19:00.536Z,53.13
2022-12-18T23:21:26.170Z,55.37
2022-12-18T23:23:51.750Z,51.27
2022-12-18T23:26:18.744Z,52.17
2022-12-18T23:28:42.988Z,56.20
2022-12-18T23:31:09.344Z,49.37
2022-12-18T23:33:33.093Z,44.73
2022-12-18T23:36:01.137Z,54.83
2022-12-18T23:38:29.334Z,45.77
2022-12-18T23:40:54.218Z,34.07
2022-12-18T23:43:20.687Z,52.93
2022-12-18T23:45:45.405Z,51.03
2022-12-18T23:48:09.105Z,46.63
2022-12-18T23:50:32.832Z,47.27
2022-12-18T23:53:02.068Z,52.80
2022-12-18T23:55:30.390Z,45.90
2022-12-18T23:57:54.112Z,47.20
